^^
Meteo Knjazevac Station Historical Data
Daily Summary for September 26, 2021 Units:  Both    English   Metric
Daily Weekly Monthly Yearly Custom
  High: Low: Average:
Temperature: 50.9 °F /  10.5 °C 28.9 °F /  -1.7 °C 35.7 °F /  2.1 °C
Dew Point: 43.8 °F /  6.6 °C 27.8 °F /  -2.3 °C 34.1 °F /  1.2 °C
Humidity: 99% 75% 94%
Wind Speed: 6mph /  9.7km/h - 1.8mph /  2.9km/h
Wind Gust: 12mph /  19.3km/h - -
Wind- - SE
Pressure: 30.39 in /  1029 hPa 30.28 in /  1025.3 hPa -
Precipitation: 0.00 in /  0 mm    
Historical Graphs
 
 
Tabular Data for September 26, 2021
Time Temperature Dew Point Pressure Wind Wind Speed Wind Gust Humidity Rainfall Rate (Hourly) solar Conditions
00:00 36 °F /  2.2 °C 34.1 °F /  1.2 °C 30.39in /  1029hPa ESE 1mph /  1.6km/h 2mph /  3.2km/h 93% 0.00in /  0mm 0 W/m2
00:10 35.8 °F /  2.1 °C 34.2 °F /  1.2 °C 30.39in /  1029hPa Calm   3mph /  4.8km/h 94% 0.00in /  0mm 0 W/m2
00:20 35.4 °F /  1.9 °C 33.6 °F /  0.9 °C 30.39in /  1029hPa North 1mph /  1.6km/h 2mph /  3.2km/h 93% 0.00in /  0mm 0 W/m2
00:30 34.9 °F /  1.6 °C 33.1 °F /  0.6 °C 30.39in /  1029hPa NW 1mph /  1.6km/h 3mph /  4.8km/h 93% 0.00in /  0mm 0 W/m2
00:40 34.7 °F /  1.5 °C 32.9 °F /  0.5 °C 30.39in /  1029hPa Calm   3mph /  4.8km/h 93% 0.00in /  0mm 0 W/m2
00:50 34.2 °F /  1.2 °C 32.3 °F /  0.2 °C 30.39in /  1029hPa Calm   3mph /  4.8km/h 93% 0.00in /  0mm 0 W/m2
01:00 33.8 °F /  1 °C 32 °F /  0 °C 30.39in /  1029hPa NW 1mph /  1.6km/h 5mph /  8km/h 93% 0.00in /  0mm 0 W/m2
01:10 33.6 °F /  0.9 °C 32.1 °F /  0.1 °C 30.39in /  1029hPa NNW 1mph /  1.6km/h 5mph /  8km/h 94% 0.00in /  0mm 0 W/m2
01:20 33.3 °F /  0.7 °C 31.7 °F /  -0.2 °C 30.39in /  1029hPa WNW 2mph /  3.2km/h 5mph /  8km/h 94% 0.00in /  0mm 0 W/m2
01:30 33.3 °F /  0.7 °C 31.7 °F /  -0.2 °C 30.39in /  1029hPa Calm   2mph /  3.2km/h 94% 0.00in /  0mm 0 W/m2
01:40 33.1 °F /  0.6 °C 31.5 °F /  -0.3 °C 30.39in /  1029hPa NW 1mph /  1.6km/h 2mph /  3.2km/h 94% 0.00in /  0mm 0 W/m2
01:50 32.5 °F /  0.3 °C 31 °F /  -0.6 °C 30.39in /  1029hPa Calm   3mph /  4.8km/h 94% 0.00in /  0mm 0 W/m2
02:00 32.4 °F /  0.2 °C 30.8 °F /  -0.7 °C 30.39in /  1029hPa Calm   2mph /  3.2km/h 94% 0.00in /  0mm 0 W/m2
02:10 32 °F /  0 °C 30.5 °F /  -0.8 °C 30.39in /  1029hPa Calm   4mph /  6.4km/h 94% 0.00in /  0mm 0 W/m2
02:20 32 °F /  0 °C 30.7 °F /  -0.7 °C 30.38in /  1028.7hPa Calm   2mph /  3.2km/h 95% 0.00in /  0mm 0 W/m2
02:30 31.8 °F /  -0.1 °C 30.6 °F /  -0.8 °C 30.39in /  1029hPa Calm   2mph /  3.2km/h 95% 0.00in /  0mm 0 W/m2
02:40 31.6 °F /  -0.2 °C 30.4 °F /  -0.9 °C 30.38in /  1028.7hPa Calm   2mph /  3.2km/h 95% 0.00in /  0mm 0 W/m2
02:50 31.5 °F /  -0.3 °C 30.2 °F /  -1 °C 30.38in /  1028.7hPa NW 1mph /  1.6km/h 2mph /  3.2km/h 95% 0.00in /  0mm 0 W/m2
03:00 31.3 °F /  -0.4 °C 30 °F /  -1.1 °C 30.38in /  1028.7hPa WNW 1mph /  1.6km/h 3mph /  4.8km/h 95% 0.00in /  0mm 0 W/m2
03:10 31.1 °F /  -0.5 °C 29.8 °F /  -1.2 °C 30.37in /  1028.3hPa West 2mph /  3.2km/h 4mph /  6.4km/h 95% 0.00in /  0mm 0 W/m2
03:20 30.9 °F /  -0.6 °C 29.7 °F /  -1.3 °C 30.37in /  1028.3hPa WNW 1mph /  1.6km/h 3mph /  4.8km/h 95% 0.00in /  0mm 0 W/m2
03:30 30.7 °F /  -0.7 °C 29.5 °F /  -1.4 °C 30.37in /  1028.3hPa WNW 2mph /  3.2km/h 2mph /  3.2km/h 95% 0.00in /  0mm 0 W/m2
03:40 30.6 °F /  -0.8 °C 29.3 °F /  -1.5 °C 30.37in /  1028.3hPa North 1mph /  1.6km/h 3mph /  4.8km/h 95% 0.00in /  0mm 0 W/m2
03:50 30.6 °F /  -0.8 °C 29.3 °F /  -1.5 °C 30.37in /  1028.3hPa Calm   2mph /  3.2km/h 95% 0.00in /  0mm 0 W/m2
04:00 30.4 °F /  -0.9 °C 29.1 °F /  -1.6 °C 30.37in /  1028.3hPa NNE 1mph /  1.6km/h 2mph /  3.2km/h 95% 0.00in /  0mm 0 W/m2
04:10 30.4 °F /  -0.9 °C 29.1 °F /  -1.6 °C 30.37in /  1028.3hPa NNW 1mph /  1.6km/h 2mph /  3.2km/h 95% 0.00in /  0mm 0 W/m2
04:20 30 °F /  -1.1 °C 28.8 °F /  -1.8 °C 30.37in /  1028.3hPa NW 2mph /  3.2km/h 3mph /  4.8km/h 95% 0.00in /  0mm 0 W/m2
04:30 29.8 °F /  -1.2 °C 28.6 °F /  -1.9 °C 30.37in /  1028.3hPa NNW 1mph /  1.6km/h 2mph /  3.2km/h 95% 0.00in /  0mm 0 W/m2
04:40 29.8 °F /  -1.2 °C 28.6 °F /  -1.9 °C 30.37in /  1028.3hPa WNW 1mph /  1.6km/h 2mph /  3.2km/h 95% 0.00in /  0mm 0 W/m2
04:50 29.8 °F /  -1.2 °C 28.8 °F /  -1.8 °C 30.37in /  1028.3hPa Calm   2mph /  3.2km/h 96% 0.00in /  0mm 0 W/m2
05:00 29.5 °F /  -1.4 °C 28.2 °F /  -2.1 °C 30.37in /  1028.3hPa West 1mph /  1.6km/h 3mph /  4.8km/h 95% 0.00in /  0mm 0 W/m2
05:10 29.1 °F /  -1.6 °C 27.8 °F /  -2.3 °C 30.37in /  1028.3hPa WNW 3mph /  4.8km/h 4mph /  6.4km/h 95% 0.00in /  0mm 0 W/m2
05:20 28.9 °F /  -1.7 °C 27.9 °F /  -2.3 °C 30.37in /  1028.3hPa NW 1mph /  1.6km/h 4mph /  6.4km/h 96% 0.00in /  0mm 0 W/m2
05:30 29.3 °F /  -1.5 °C 28.3 °F /  -2.1 °C 30.37in /  1028.3hPa Calm   2mph /  3.2km/h 96% 0.00in /  0mm 0 W/m2
05:40 29.5 °F /  -1.4 °C 29 °F /  -1.7 °C 30.37in /  1028.3hPa Calm   2mph /  3.2km/h 98% 0.00in /  0mm 0 W/m2
05:50 29.7 °F /  -1.3 °C 29.2 °F /  -1.6 °C 30.37in /  1028.3hPa WNW 1mph /  1.6km/h 3mph /  4.8km/h 98% 0.00in /  0mm 0 W/m2
06:00 29.8 °F /  -1.2 °C 29.3 °F /  -1.5 °C 30.37in /  1028.3hPa WNW 2mph /  3.2km/h 4mph /  6.4km/h 98% 0.00in /  0mm 0 W/m2
06:10 30.2 °F /  -1 °C 30 °F /  -1.1 °C 30.37in /  1028.3hPa WNW 2mph /  3.2km/h 5mph /  8km/h 99% 0.00in /  0mm 0 W/m2
06:20 30.6 °F /  -0.8 °C 30.3 °F /  -0.9 °C 30.37in /  1028.3hPa WNW 2mph /  3.2km/h 3mph /  4.8km/h 99% 0.00in /  0mm 0 W/m2
06:30 30.9 °F /  -0.6 °C 30.7 °F /  -0.7 °C 30.36in /  1028hPa Calm   2mph /  3.2km/h 99% 0.00in /  0mm 0 W/m2
06:40 30.9 °F /  -0.6 °C 30.7 °F /  -0.7 °C 30.36in /  1028hPa NW 1mph /  1.6km/h 2mph /  3.2km/h 99% 0.00in /  0mm 0 W/m2
06:50 31.1 °F /  -0.5 °C 30.6 °F /  -0.8 °C 30.36in /  1028hPa Calm   2mph /  3.2km/h 98% 0.00in /  0mm 0 W/m2
07:00 31.1 °F /  -0.5 °C 30.6 °F /  -0.8 °C 30.37in /  1028.3hPa WNW 2mph /  3.2km/h 3mph /  4.8km/h 98% 0.00in /  0mm 1 W/m2
07:10 31.3 °F /  -0.4 °C 30.8 °F /  -0.7 °C 30.37in /  1028.3hPa Calm   2mph /  3.2km/h 98% 0.00in /  0mm 3 W/m2
07:20 31.5 °F /  -0.3 °C 31 °F /  -0.6 °C 30.37in /  1028.3hPa WNW 1mph /  1.6km/h 3mph /  4.8km/h 98% 0.00in /  0mm 8 W/m2
07:30 31.6 °F /  -0.2 °C 31.1 °F /  -0.5 °C 30.37in /  1028.3hPa West 1mph /  1.6km/h 3mph /  4.8km/h 98% 0.00in /  0mm 11 W/m2
07:40 31.8 °F /  -0.1 °C 31.3 °F /  -0.4 °C 30.37in /  1028.3hPa Calm   2mph /  3.2km/h 98% 0.00in /  0mm 17 W/m2
07:50 32.2 °F /  0.1 °C 31.9 °F /  -0.1 °C 30.38in /  1028.7hPa Calm   2mph /  3.2km/h 99% 0.00in /  0mm 20 W/m2
08:00 32.6 °F /  0.3 °C 32.3 °F /  0.2 °C 30.38in /  1028.7hPa Calm   2mph /  3.2km/h 99% 0.00in /  0mm 28 W/m2
08:10 33.1 °F /  0.6 °C 32.8 °F /  0.4 °C 30.38in /  1028.7hPa NNW 1mph /  1.6km/h 2mph /  3.2km/h 99% 0.00in /  0mm 38 W/m2
08:20 33.5 °F /  0.8 °C 33.2 °F /  0.7 °C 30.38in /  1028.7hPa NNE 1mph /  1.6km/h 3mph /  4.8km/h 99% 0.00in /  0mm 39 W/m2
08:30 34 °F /  1.1 °C 33.7 °F /  0.9 °C 30.38in /  1028.7hPa NNE 2mph /  3.2km/h 4mph /  6.4km/h 99% 0.00in /  0mm 55 W/m2
08:40 34.3 °F /  1.3 °C 34.1 °F /  1.2 °C 30.38in /  1028.7hPa NE 1mph /  1.6km/h 3mph /  4.8km/h 99% 0.00in /  0mm 56 W/m2
08:50 34.5 °F /  1.4 °C 34.3 °F /  1.3 °C 30.38in /  1028.7hPa North 1mph /  1.6km/h 3mph /  4.8km/h 99% 0.00in /  0mm 63 W/m2
09:00 35.1 °F /  1.7 °C 34.8 °F /  1.6 °C 30.38in /  1028.7hPa NNE 1mph /  1.6km/h 2mph /  3.2km/h 99% 0.00in /  0mm 62 W/m2
09:10 35.4 °F /  1.9 °C 35.2 °F /  1.8 °C 30.37in /  1028.3hPa NNE 3mph /  4.8km/h 5mph /  8km/h 99% 0.00in /  0mm 70 W/m2
09:20 35.8 °F /  2.1 °C 35.5 °F /  1.9 °C 30.37in /  1028.3hPa NNE 2mph /  3.2km/h 7mph /  11.3km/h 99% 0.00in /  0mm 70 W/m2
09:30 36 °F /  2.2 °C 35.8 °F /  2.1 °C 30.37in /  1028.3hPa NNE 2mph /  3.2km/h 6mph /  9.7km/h 99% 0.00in /  0mm 103 W/m2
09:40 36.3 °F /  2.4 °C 36.1 °F /  2.3 °C 30.37in /  1028.3hPa NE 5mph /  8km/h 7mph /  11.3km/h 99% 0.00in /  0mm 115 W/m2
09:50 36.7 °F /  2.6 °C 36.4 °F /  2.4 °C 30.37in /  1028.3hPa NNE 3mph /  4.8km/h 7mph /  11.3km/h 99% 0.00in /  0mm 114 W/m2
10:00 37.1 °F /  2.8 °C 36.8 °F /  2.7 °C 30.37in /  1028.3hPa NNE 6mph /  9.7km/h 8mph /  12.9km/h 99% 0.00in /  0mm 124 W/m2
10:10 37.4 °F /  3 °C 37.1 °F /  2.8 °C 30.37in /  1028.3hPa NNE 2mph /  3.2km/h 7mph /  11.3km/h 99% 0.00in /  0mm 111 W/m2
10:20 37.8 °F /  3.2 °C 37.5 °F /  3.1 °C 30.37in /  1028.3hPa North 5mph /  8km/h 7mph /  11.3km/h 99% 0.00in /  0mm 117 W/m2
10:30 37.9 °F /  3.3 °C 37.4 °F /  3 °C 30.37in /  1028.3hPa NNE 3mph /  4.8km/h 9mph /  14.5km/h 98% 0.00in /  0mm 112 W/m2
10:40 38.3 °F /  3.5 °C 37.8 °F /  3.2 °C 30.37in /  1028.3hPa NNE 2mph /  3.2km/h 8mph /  12.9km/h 98% 0.00in /  0mm 108 W/m2
10:50 38.5 °F /  3.6 °C 37.4 °F /  3 °C 30.37in /  1028.3hPa North 3mph /  4.8km/h 7mph /  11.3km/h 96% 0.00in /  0mm 114 W/m2
11:00 38.5 °F /  3.6 °C 37.5 °F /  3.1 °C 30.36in /  1028hPa North 3mph /  4.8km/h 7mph /  11.3km/h 96% 0.00in /  0mm 107 W/m2
11:10 38.8 °F /  3.8 °C 37.8 °F /  3.2 °C 30.36in /  1028hPa North 3mph /  4.8km/h 8mph /  12.9km/h 96% 0.00in /  0mm 122 W/m2
11:20 39.2 °F /  4 °C 38.2 °F /  3.4 °C 30.36in /  1028hPa North 3mph /  4.8km/h 6mph /  9.7km/h 96% 0.00in /  0mm 139 W/m2
11:30 39.6 °F /  4.2 °C 38.2 °F /  3.4 °C 30.36in /  1028hPa NNE 3mph /  4.8km/h 8mph /  12.9km/h 95% 0.00in /  0mm 166 W/m2
11:40 40 °F /  4.4 °C 38.7 °F /  3.7 °C 30.35in /  1027.7hPa NNE 3mph /  4.8km/h 8mph /  12.9km/h 95% 0.00in /  0mm 163 W/m2
11:50 40.5 °F /  4.7 °C 38.9 °F /  3.8 °C 30.35in /  1027.7hPa NNE 6mph /  9.7km/h 8mph /  12.9km/h 94% 0.00in /  0mm 203 W/m2
12:00 41 °F /  5 °C 39.4 °F /  4.1 °C 30.35in /  1027.7hPa NNE 5mph /  8km/h 8mph /  12.9km/h 94% 0.00in /  0mm 191 W/m2
12:10 41.4 °F /  5.2 °C 39.5 °F /  4.2 °C 30.34in /  1027.3hPa NNE 2mph /  3.2km/h 8mph /  12.9km/h 93% 0.00in /  0mm 207 W/m2
12:20 41.9 °F /  5.5 °C 40 °F /  4.4 °C 30.34in /  1027.3hPa North 2mph /  3.2km/h 11mph /  17.7km/h 93% 0.00in /  0mm 260 W/m2
12:30 42.4 °F /  5.8 °C 40 °F /  4.4 °C 30.34in /  1027.3hPa NNE 3mph /  4.8km/h 9mph /  14.5km/h 91% 0.00in /  0mm 302 W/m2
12:40 43 °F /  6.1 °C 40.2 °F /  4.6 °C 30.33in /  1027hPa NNE 3mph /  4.8km/h 9mph /  14.5km/h 90% 0.00in /  0mm 320 W/m2
12:50 44.1 °F /  6.7 °C 41.4 °F /  5.2 °C 30.33in /  1027hPa NNE 3mph /  4.8km/h 8mph /  12.9km/h 90% 0.00in /  0mm 506 W/m2
13:00 45.6 °F /  7.6 °C 42.2 °F /  5.7 °C 30.32in /  1026.6hPa NNE 3mph /  4.8km/h 12mph /  19.3km/h 88% 0.00in /  0mm 507 W/m2
13:10 46.8 °F /  8.2 °C 42.5 °F /  5.8 °C 30.32in /  1026.6hPa North 2mph /  3.2km/h 8mph /  12.9km/h 85% 0.00in /  0mm 499 W/m2
13:20 47.8 °F /  8.8 °C 43.2 °F /  6.2 °C 30.31in /  1026.3hPa NNE 6mph /  9.7km/h 10mph /  16.1km/h 84% 0.00in /  0mm 490 W/m2
13:30 48.4 °F /  9.1 °C 42.9 °F /  6.1 °C 30.31in /  1026.3hPa NNE 3mph /  4.8km/h 9mph /  14.5km/h 81% 0.00in /  0mm 479 W/m2
13:40 48.9 °F /  9.4 °C 43 °F /  6.1 °C 30.30in /  1026hPa NNE 5mph /  8km/h 10mph /  16.1km/h 80% 0.00in /  0mm 466 W/m2
13:50 49.5 °F /  9.7 °C 43.2 °F /  6.2 °C 30.30in /  1026hPa North 5mph /  8km/h 12mph /  19.3km/h 79% 0.00in /  0mm 452 W/m2
14:00 49.9 °F /  9.9 °C 43.3 °F /  6.3 °C 30.30in /  1026hPa NNE 5mph /  8km/h 9mph /  14.5km/h 78% 0.00in /  0mm 437 W/m2
14:10 50.4 °F /  10.2 °C 43.8 °F /  6.6 °C 30.29in /  1025.6hPa North 3mph /  4.8km/h 8mph /  12.9km/h 78% 0.00in /  0mm 420 W/m2
14:20 50.7 °F /  10.4 °C 43.8 °F /  6.6 °C 30.28in /  1025.3hPa NNE 5mph /  8km/h 11mph /  17.7km/h 77% 0.00in /  0mm 403 W/m2
14:30 50.9 °F /  10.5 °C 43.3 °F /  6.3 °C 30.28in /  1025.3hPa North 3mph /  4.8km/h 10mph /  16.1km/h 75% 0.00in /  0mm 384 W/m2
Knjazevac, Serbia
Compliments of Weather Underground - 2 mb